sensor_id;sensor_type;location;lat;lon;timestamp;pressure;altitude;pressure_sealevel;temperature;humidity
9129;BME280;4599;50.906;6.786;2023-11-19T00:01:45;99798.19;;;9.98;100.00
9129;BME280;4599;50.906;6.786;2023-11-19T00:05:47;99788.06;;;10.19;100.00
9129;BME280;4599;50.906;6.786;2023-11-19T00:09:48;99778.69;;;10.29;100.00
9129;BME280;4599;50.906;6.786;2023-11-19T00:13:50;99775.84;;;10.43;100.00
9129;BME280;4599;50.906;6.786;2023-11-19T00:17:53;99765.75;;;10.41;99.77
9129;BME280;4599;50.906;6.786;2023-11-19T00:21:54;99758.38;;;10.48;98.76
9129;BME280;4599;50.906;6.786;2023-11-19T00:25:56;99751.41;;;10.39;99.25
9129;BME280;4599;50.906;6.786;2023-11-19T00:29:58;99751.81;;;10.34;99.52
9129;BME280;4599;50.906;6.786;2023-11-19T00:34:00;99753.81;;;10.72;99.28
9129;BME280;4599;50.906;6.786;2023-11-19T00:38:02;99747.88;;;10.92;98.62
9129;BME280;4599;50.906;6.786;2023-11-19T00:42:04;99736.44;;;10.96;99.28
9129;BME280;4599;50.906;6.786;2023-11-19T00:46:07;99740.75;;;10.96;98.55
9129;BME280;4599;50.906;6.786;2023-11-19T00:50:10;99755.00;;;10.89;98.95
9129;BME280;4599;50.906;6.786;2023-11-19T00:54:12;99764.13;;;10.82;99.45
9129;BME280;4599;50.906;6.786;2023-11-19T00:58:13;99761.41;;;10.94;99.33
9129;BME280;4599;50.906;6.786;2023-11-19T01:02:15;99748.56;;;10.94;99.75
9129;BME280;4599;50.906;6.786;2023-11-19T01:06:27;99762.84;;;10.87;99.66
9129;BME280;4599;50.906;6.786;2023-11-19T01:10:29;99745.19;;;10.94;100.00
9129;BME280;4599;50.906;6.786;2023-11-19T01:14:30;99749.44;;;11.05;100.00
9129;BME280;4599;50.906;6.786;2023-11-19T01:18:32;99749.34;;;11.16;100.00
9129;BME280;4599;50.906;6.786;2023-11-19T01:22:35;99749.41;;;11.25;99.77
9129;BME280;4599;50.906;6.786;2023-11-19T01:26:36;99747.91;;;11.23;100.00
9129;BME280;4599;50.906;6.786;2023-11-19T01:30:38;99752.88;;;11.24;100.00
9129;BME280;4599;50.906;6.786;2023-11-19T01:34:40;99753.47;;;11.37;99.29
9129;BME280;4599;50.906;6.786;2023-11-19T01:38:43;99753.38;;;11.48;99.28
9129;BME280;4599;50.906;6.786;2023-11-19T01:42:45;99757.19;;;11.54;98.66
9129;BME280;4599;50.906;6.786;2023-11-19T01:46:46;99753.25;;;11.40;98.67
9129;BME280;4599;50.906;6.786;2023-11-19T01:50:48;99745.53;;;11.40;98.83
9129;BME280;4599;50.906;6.786;2023-11-19T01:54:52;99739.88;;;11.46;99.11
9129;BME280;4599;50.906;6.786;2023-11-19T01:58:54;99746.78;;;11.46;98.14
9129;BME280;4599;50.906;6.786;2023-11-19T02:02:56;99743.41;;;11.55;98.05
9129;BME280;4599;50.906;6.786;2023-11-19T02:06:59;99740.09;;;11.34;98.37
9129;BME280;4599;50.906;6.786;2023-11-19T02:11:02;99732.84;;;11.39;99.22
9129;BME280;4599;50.906;6.786;2023-11-19T02:15:04;99708.25;;;11.36;97.51
9129;BME280;4599;50.906;6.786;2023-11-19T02:19:06;99702.72;;;11.41;98.87
9129;BME280;4599;50.906;6.786;2023-11-19T02:23:07;99692.59;;;11.39;98.10
9129;BME280;4599;50.906;6.786;2023-11-19T02:27:16;99683.09;;;11.21;98.41
9129;BME280;4599;50.906;6.786;2023-11-19T02:31:23;99689.69;;;11.23;98.34
9129;BME280;4599;50.906;6.786;2023-11-19T02:35:25;99698.75;;;11.18;98.40
9129;BME280;4599;50.906;6.786;2023-11-19T02:39:27;99696.47;;;11.24;98.60
9129;BME280;4599;50.906;6.786;2023-11-19T02:43:29;99697.50;;;11.12;98.08
9129;BME280;4599;50.906;6.786;2023-11-19T02:47:32;99684.53;;;11.04;98.19
9129;BME280;4599;50.906;6.786;2023-11-19T02:51:34;99670.34;;;11.10;97.55
9129;BME280;4599;50.906;6.786;2023-11-19T02:55:36;99670.72;;;10.95;97.42
9129;BME280;4599;50.906;6.786;2023-11-19T02:59:39;99679.47;;;10.93;97.26
9129;BME280;4599;50.906;6.786;2023-11-19T03:03:43;99679.94;;;10.77;97.08
9129;BME280;4599;50.906;6.786;2023-11-19T03:07:44;99680.47;;;10.81;96.95
9129;BME280;4599;50.906;6.786;2023-11-19T03:11:46;99679.38;;;10.74;97.23
9129;BME280;4599;50.906;6.786;2023-11-19T03:15:48;99682.78;;;10.54;98.23
9129;BME280;4599;50.906;6.786;2023-11-19T03:19:51;99681.13;;;10.53;97.95
9129;BME280;4599;50.906;6.786;2023-11-19T03:23:52;99668.47;;;10.51;98.09
9129;BME280;4599;50.906;6.786;2023-11-19T03:27:54;99662.50;;;10.71;97.70
9129;BME280;4599;50.906;6.786;2023-11-19T03:31:55;99660.97;;;10.59;98.04
9129;BME280;4599;50.906;6.786;2023-11-19T03:35:58;99670.25;;;10.60;97.06
9129;BME280;4599;50.906;6.786;2023-11-19T03:40:00;99657.41;;;10.81;96.60
9129;BME280;4599;50.906;6.786;2023-11-19T03:44:04;99670.63;;;10.76;96.83
9129;BME280;4599;50.906;6.786;2023-11-19T03:48:06;99669.84;;;10.85;96.57
9129;BME280;4599;50.906;6.786;2023-11-19T03:52:09;99677.69;;;10.84;97.48
9129;BME280;4599;50.906;6.786;2023-11-19T03:56:20;99678.84;;;11.01;96.14
9129;BME280;4599;50.906;6.786;2023-11-19T04:00:21;99672.38;;;11.06;96.36
9129;BME280;4599;50.906;6.786;2023-11-19T04:04:23;99666.03;;;11.10;94.80
9129;BME280;4599;50.906;6.786;2023-11-19T04:08:26;99679.50;;;11.03;95.76
9129;BME280;4599;50.906;6.786;2023-11-19T04:12:27;99679.59;;;10.91;96.23
9129;BME280;4599;50.906;6.786;2023-11-19T04:16:29;99657.41;;;11.02;95.08
9129;BME280;4599;50.906;6.786;2023-11-19T04:20:31;99661.97;;;10.98;95.05
9129;BME280;4599;50.906;6.786;2023-11-19T04:24:34;99661.63;;;11.12;94.81
9129;BME280;4599;50.906;6.786;2023-11-19T04:28:35;99662.44;;;11.22;93.98
9129;BME280;4599;50.906;6.786;2023-11-19T04:32:37;99671.38;;;11.28;93.64
9129;BME280;4599;50.906;6.786;2023-11-19T04:36:39;99669.88;;;11.25;93.45
9129;BME280;4599;50.906;6.786;2023-11-19T04:40:41;99681.06;;;11.24;94.33
9129;BME280;4599;50.906;6.786;2023-11-19T04:44:43;99679.31;;;11.15;94.23
9129;BME280;4599;50.906;6.786;2023-11-19T04:48:45;99686.94;;;11.06;95.30
9129;BME280;4599;50.906;6.786;2023-11-19T04:52:46;99674.44;;;11.12;94.56
9129;BME280;4599;50.906;6.786;2023-11-19T04:56:50;99689.09;;;11.01;94.97
9129;BME280;4599;50.906;6.786;2023-11-19T05:00:51;99692.28;;;10.93;95.36
9129;BME280;4599;50.906;6.786;2023-11-19T05:04:53;99694.13;;;10.81;93.98
9129;BME280;4599;50.906;6.786;2023-11-19T05:08:55;99696.13;;;10.78;93.90
9129;BME280;4599;50.906;6.786;2023-11-19T05:12:58;99705.00;;;10.74;93.98
9129;BME280;4599;50.906;6.786;2023-11-19T05:16:59;99708.88;;;10.68;93.32
9129;BME280;4599;50.906;6.786;2023-11-19T05:21:01;99699.44;;;10.69;91.86
9129;BME280;4599;50.906;6.786;2023-11-19T05:25:03;99705.09;;;10.63;92.56
9129;BME280;4599;50.906;6.786;2023-11-19T05:29:07;99694.69;;;10.64;91.51
9129;BME280;4599;50.906;6.786;2023-11-19T05:33:08;99677.75;;;10.73;90.40
9129;BME280;4599;50.906;6.786;2023-11-19T05:37:10;99686.81;;;10.77;89.13
9129;BME280;4599;50.906;6.786;2023-11-19T05:41:11;99695.25;;;10.68;89.91
9129;BME280;4599;50.906;6.786;2023-11-19T05:45:14;99702.13;;;10.67;88.46
9129;BME280;4599;50.906;6.786;2023-11-19T05:49:16;99696.59;;;10.62;88.83
9129;BME280;4599;50.906;6.786;2023-11-19T05:53:17;99690.34;;;10.55;89.61
9129;BME280;4599;50.906;6.786;2023-11-19T05:57:19;99697.31;;;10.53;89.56
9129;BME280;4599;50.906;6.786;2023-11-19T06:01:23;99703.00;;;10.57;89.38
9129;BME280;4599;50.906;6.786;2023-11-19T06:05:25;99693.63;;;10.67;88.29
9129;BME280;4599;50.906;6.786;2023-11-19T06:09:26;99698.34;;;10.62;88.46
9129;BME280;4599;50.906;6.786;2023-11-19T06:13:28;99711.09;;;10.52;89.55
9129;BME280;4599;50.906;6.786;2023-11-19T06:17:31;99708.03;;;10.58;88.93
9129;BME280;4599;50.906;6.786;2023-11-19T06:21:32;99701.88;;;10.49;89.48
9129;BME280;4599;50.906;6.786;2023-11-19T06:25:34;99734.00;;;10.54;90.17
9129;BME280;4599;50.906;6.786;2023-11-19T06:29:36;99724.47;;;10.56;89.93
9129;BME280;4599;50.906;6.786;2023-11-19T06:33:39;99733.84;;;10.66;88.49
9129;BME280;4599;50.906;6.786;2023-11-19T06:37:40;99729.59;;;10.56;89.24
9129;BME280;4599;50.906;6.786;2023-11-19T06:41:44;99726.31;;;10.54;87.68
9129;BME280;4599;50.906;6.786;2023-11-19T06:45:46;99722.31;;;10.61;87.14
9129;BME280;4599;50.906;6.786;2023-11-19T06:49:49;99731.13;;;10.47;87.66
9129;BME280;4599;50.906;6.786;2023-11-19T06:53:50;99737.69;;;10.61;87.06
9129;BME280;4599;50.906;6.786;2023-11-19T06:57:52;99730.00;;;10.61;87.14
9129;BME280;4599;50.906;6.786;2023-11-19T07:01:53;99734.47;;;10.59;86.57
9129;BME280;4599;50.906;6.786;2023-11-19T07:05:56;99735.84;;;10.63;86.57
9129;BME280;4599;50.906;6.786;2023-11-19T07:09:58;99732.25;;;10.54;87.65
9129;BME280;4599;50.906;6.786;2023-11-19T07:14:00;99728.06;;;10.53;86.97
9129;BME280;4599;50.906;6.786;2023-11-19T07:18:01;99724.78;;;10.62;86.47
9129;BME280;4599;50.906;6.786;2023-11-19T07:22:05;99733.38;;;10.61;85.23
9129;BME280;4599;50.906;6.786;2023-11-19T07:26:07;99737.13;;;10.57;86.10
9129;BME280;4599;50.906;6.786;2023-11-19T07:30:09;99749.94;;;10.57;85.78
9129;BME280;4599;50.906;6.786;2023-11-19T07:34:11;99763.50;;;10.48;84.46
9129;BME280;4599;50.906;6.786;2023-11-19T07:38:14;99782.13;;;10.50;85.37
9129;BME280;4599;50.906;6.786;2023-11-19T07:42:15;99786.31;;;10.51;86.42
9129;BME280;4599;50.906;6.786;2023-11-19T07:46:17;99772.72;;;10.39;86.32
9129;BME280;4599;50.906;6.786;2023-11-19T07:50:18;99801.75;;;10.61;85.19
9129;BME280;4599;50.906;6.786;2023-11-19T07:54:21;99818.97;;;10.70;86.11
9129;BME280;4599;50.906;6.786;2023-11-19T07:58:23;99809.13;;;10.75;85.14
9129;BME280;4599;50.906;6.786;2023-11-19T08:02:25;99794.31;;;10.78;85.93
9129;BME280;4599;50.906;6.786;2023-11-19T08:06:26;99791.44;;;10.72;86.46
9129;BME280;4599;50.906;6.786;2023-11-19T08:10:30;99790.38;;;10.74;86.05
9129;BME280;4599;50.906;6.786;2023-11-19T08:14:31;99782.13;;;10.71;86.61
9129;BME280;4599;50.906;6.786;2023-11-19T08:18:33;99787.88;;;10.63;86.78
9129;BME280;4599;50.906;6.786;2023-11-19T08:22:36;99794.56;;;10.75;86.38
9129;BME280;4599;50.906;6.786;2023-11-19T08:26:39;99806.78;;;10.83;85.12
9129;BME280;4599;50.906;6.786;2023-11-19T08:30:40;99804.84;;;10.96;85.88
9129;BME280;4599;50.906;6.786;2023-11-19T08:34:42;99797.69;;;10.99;83.20
9129;BME280;4599;50.906;6.786;2023-11-19T08:38:43;99793.69;;;11.07;82.64
9129;BME280;4599;50.906;6.786;2023-11-19T08:42:46;99806.72;;;11.15;82.75
9129;BME280;4599;50.906;6.786;2023-11-19T08:46:48;99809.38;;;11.13;82.80
9129;BME280;4599;50.906;6.786;2023-11-19T08:50:49;99810.38;;;11.22;82.83
9129;BME280;4599;50.906;6.786;2023-11-19T08:54:51;99816.19;;;11.24;82.46
9129;BME280;4599;50.906;6.786;2023-11-19T08:58:54;99823.06;;;11.23;82.49
9129;BME280;4599;50.906;6.786;2023-11-19T09:02:55;99831.66;;;11.33;81.48
9129;BME280;4599;50.906;6.786;2023-11-19T09:06:57;99837.66;;;11.43;80.62
9129;BME280;4599;50.906;6.786;2023-11-19T09:10:59;99837.09;;;11.40;81.69
9129;BME280;4599;50.906;6.786;2023-11-19T09:15:02;99828.97;;;11.65;80.04
9129;BME280;4599;50.906;6.786;2023-11-19T09:19:03;99819.06;;;11.61;79.00
9129;BME280;4599;50.906;6.786;2023-11-19T09:23:07;99816.47;;;11.72;78.80
9129;BME280;4599;50.906;6.786;2023-11-19T09:27:09;99819.09;;;11.70;79.68
9129;BME280;4599;50.906;6.786;2023-11-19T09:31:15;99819.03;;;11.81;78.29
9129;BME280;4599;50.906;6.786;2023-11-19T09:35:17;99834.19;;;11.84;77.87
9129;BME280;4599;50.906;6.786;2023-11-19T09:39:19;99835.38;;;11.80;79.15
9129;BME280;4599;50.906;6.786;2023-11-19T09:43:20;99840.22;;;12.14;77.74
9129;BME280;4599;50.906;6.786;2023-11-19T09:47:23;99844.19;;;12.46;75.15
9129;BME280;4599;50.906;6.786;2023-11-19T09:51:26;99839.03;;;12.75;75.10
9129;BME280;4599;50.906;6.786;2023-11-19T09:55:29;99835.94;;;12.91;74.31
9129;BME280;4599;50.906;6.786;2023-11-19T09:59:31;99828.91;;;12.93;72.93
9129;BME280;4599;50.906;6.786;2023-11-19T10:03:34;99800.06;;;12.89;73.90
9129;BME280;4599;50.906;6.786;2023-11-19T10:07:36;99829.59;;;13.14;74.54
9129;BME280;4599;50.906;6.786;2023-11-19T10:11:38;99822.69;;;13.52;72.57
9129;BME280;4599;50.906;6.786;2023-11-19T10:15:40;99813.50;;;14.66;68.09
9129;BME280;4599;50.906;6.786;2023-11-19T10:19:43;99815.78;;;15.80;65.17
9129;BME280;4599;50.906;6.786;2023-11-19T10:23:48;99813.06;;;15.82;63.23
9129;BME280;4599;50.906;6.786;2023-11-19T10:27:50;99812.50;;;16.04;62.43
9129;BME280;4599;50.906;6.786;2023-11-19T10:31:55;99802.06;;;16.46;60.56
9129;BME280;4599;50.906;6.786;2023-11-19T10:35:58;99805.38;;;17.43;58.08
9129;BME280;4599;50.906;6.786;2023-11-19T10:40:03;99805.97;;;17.62;55.59
9129;BME280;4599;50.906;6.786;2023-11-19T10:44:05;99804.00;;;16.36;58.09
9129;BME280;4599;50.906;6.786;2023-11-19T10:48:07;99809.25;;;16.02;60.37
9129;BME280;4599;50.906;6.786;2023-11-19T10:52:10;99806.59;;;15.44;62.60
9129;BME280;4599;50.906;6.786;2023-11-19T10:56:13;99818.66;;;14.66;64.42
9129;BME280;4599;50.906;6.786;2023-11-19T11:00:19;99814.75;;;14.17;65.62
9129;BME280;4599;50.906;6.786;2023-11-19T11:04:24;99818.38;;;13.79;67.62
9129;BME280;4599;50.906;6.786;2023-11-19T11:08:28;99820.69;;;13.36;68.99
9129;BME280;4599;50.906;6.786;2023-11-19T11:12:33;99833.22;;;13.21;69.92
9129;BME280;4599;50.906;6.786;2023-11-19T11:16:37;99821.50;;;13.36;69.17
9129;BME280;4599;50.906;6.786;2023-11-19T11:20:44;99820.91;;;13.25;68.92
9129;BME280;4599;50.906;6.786;2023-11-19T11:25:01;99813.63;;;13.11;69.14
9129;BME280;4599;50.906;6.786;2023-11-19T11:29:12;99817.25;;;12.98;68.13
9129;BME280;4599;50.906;6.786;2023-11-19T11:33:28;99817.91;;;13.20;69.08
9129;BME280;4599;50.906;6.786;2023-11-19T11:37:37;99815.31;;;13.29;69.96
9129;BME280;4599;50.906;6.786;2023-11-19T11:41:41;99804.22;;;13.19;68.53
9129;BME280;4599;50.906;6.786;2023-11-19T11:45:43;99795.03;;;12.97;70.39
9129;BME280;4599;50.906;6.786;2023-11-19T11:49:45;99785.28;;;13.20;71.53
9129;BME280;4599;50.906;6.786;2023-11-19T11:53:47;99787.38;;;13.99;67.74
9129;BME280;4599;50.906;6.786;2023-11-19T11:57:50;99802.78;;;14.26;68.26
9129;BME280;4599;50.906;6.786;2023-11-19T12:01:57;99779.06;;;14.22;67.68
9129;BME280;4599;50.906;6.786;2023-11-19T12:05:59;99790.53;;;14.10;68.04
9129;BME280;4599;50.906;6.786;2023-11-19T12:10:06;99791.06;;;14.31;68.14
9129;BME280;4599;50.906;6.786;2023-11-19T12:14:09;99778.63;;;14.27;68.65
9129;BME280;4599;50.906;6.786;2023-11-19T12:18:11;99770.06;;;14.26;68.28
9129;BME280;4599;50.906;6.786;2023-11-19T12:22:20;99764.59;;;13.94;68.68
9129;BME280;4599;50.906;6.786;2023-11-19T12:26:32;99762.13;;;14.20;66.76
9129;BME280;4599;50.906;6.786;2023-11-19T12:30:35;99769.47;;;13.97;67.87
9129;BME280;4599;50.906;6.786;2023-11-19T12:34:37;99770.25;;;13.80;69.62
9129;BME280;4599;50.906;6.786;2023-11-19T12:38:39;99781.31;;;13.63;70.51
9129;BME280;4599;50.906;6.786;2023-11-19T12:42:42;99761.78;;;13.33;70.37
9129;BME280;4599;50.906;6.786;2023-11-19T12:46:46;99768.63;;;13.24;71.83
9129;BME280;4599;50.906;6.786;2023-11-19T12:50:50;99764.28;;;13.15;72.63
9129;BME280;4599;50.906;6.786;2023-11-19T12:54:52;99765.69;;;13.00;73.88
9129;BME280;4599;50.906;6.786;2023-11-19T12:58:54;99767.03;;;13.14;72.00
9129;BME280;4599;50.906;6.786;2023-11-19T13:02:57;99756.56;;;13.15;71.84
9129;BME280;4599;50.906;6.786;2023-11-19T13:07:00;99745.97;;;13.28;73.15
9129;BME280;4599;50.906;6.786;2023-11-19T13:11:05;99739.34;;;13.25;71.22
9129;BME280;4599;50.906;6.786;2023-11-19T13:15:22;99744.34;;;13.54;70.06
9129;BME280;4599;50.906;6.786;2023-11-19T13:19:25;99759.19;;;13.70;71.01
9129;BME280;4599;50.906;6.786;2023-11-19T13:23:27;99759.84;;;13.72;69.64
9129;BME280;4599;50.906;6.786;2023-11-19T13:27:28;99751.06;;;13.65;70.89
9129;BME280;4599;50.906;6.786;2023-11-19T13:31:30;99748.84;;;13.52;70.15
9129;BME280;4599;50.906;6.786;2023-11-19T13:35:33;99747.97;;;13.61;68.98
9129;BME280;4599;50.906;6.786;2023-11-19T13:39:35;99739.63;;;13.77;69.24
9129;BME280;4599;50.906;6.786;2023-11-19T13:43:36;99731.47;;;13.54;70.37
9129;BME280;4599;50.906;6.786;2023-11-19T13:47:38;99731.94;;;13.50;70.20
9129;BME280;4599;50.906;6.786;2023-11-19T13:51:41;99743.00;;;13.23;70.09
9129;BME280;4599;50.906;6.786;2023-11-19T13:55:43;99732.34;;;13.08;70.34
9129;BME280;4599;50.906;6.786;2023-11-19T13:59:44;99723.31;;;12.94;70.62
9129;BME280;4599;50.906;6.786;2023-11-19T14:03:46;99723.47;;;12.93;71.18
9129;BME280;4599;50.906;6.786;2023-11-19T14:07:49;99714.00;;;12.84;69.83
9129;BME280;4599;50.906;6.786;2023-11-19T14:11:51;99711.13;;;12.96;70.60
9129;BME280;4599;50.906;6.786;2023-11-19T14:15:53;99717.88;;;13.07;70.34
9129;BME280;4599;50.906;6.786;2023-11-19T14:19:55;99724.53;;;12.90;70.48
9129;BME280;4599;50.906;6.786;2023-11-19T14:23:58;99716.28;;;12.87;70.11
9129;BME280;4599;50.906;6.786;2023-11-19T14:27:59;99726.44;;;12.79;70.75
9129;BME280;4599;50.906;6.786;2023-11-19T14:32:03;99736.75;;;12.69;71.27
9129;BME280;4599;50.906;6.786;2023-11-19T14:36:05;99734.06;;;12.71;72.16
9129;BME280;4599;50.906;6.786;2023-11-19T14:40:09;99724.84;;;12.68;71.03
9129;BME280;4599;50.906;6.786;2023-11-19T14:44:11;99733.00;;;12.64;71.03
9129;BME280;4599;50.906;6.786;2023-11-19T14:48:13;99723.78;;;12.61;70.76
9129;BME280;4599;50.906;6.786;2023-11-19T14:52:14;99712.72;;;12.41;71.97
9129;BME280;4599;50.906;6.786;2023-11-19T14:56:20;99726.22;;;12.43;71.05
9129;BME280;4599;50.906;6.786;2023-11-19T15:00:22;99734.38;;;12.39;72.49
9129;BME280;4599;50.906;6.786;2023-11-19T15:04:23;99728.69;;;12.26;72.64
9129;BME280;4599;50.906;6.786;2023-11-19T15:08:25;99734.78;;;12.25;73.18
9129;BME280;4599;50.906;6.786;2023-11-19T15:12:29;99747.59;;;12.06;73.84
9129;BME280;4599;50.906;6.786;2023-11-19T15:16:30;99733.28;;;12.13;74.69
9129;BME280;4599;50.906;6.786;2023-11-19T15:20:32;99741.00;;;12.03;74.30
9129;BME280;4599;50.906;6.786;2023-11-19T15:24:33;99732.84;;;11.98;74.86
9129;BME280;4599;50.906;6.786;2023-11-19T15:28:36;99737.84;;;11.80;75.08
9129;BME280;4599;50.906;6.786;2023-11-19T15:32:38;99733.41;;;11.82;75.67
9129;BME280;4599;50.906;6.786;2023-11-19T15:36:40;99724.31;;;11.78;76.00
9129;BME280;4599;50.906;6.786;2023-11-19T15:40:41;99713.78;;;11.81;75.09
9129;BME280;4599;50.906;6.786;2023-11-19T15:44:44;99722.09;;;11.55;76.42
9129;BME280;4599;50.906;6.786;2023-11-19T15:48:46;99735.56;;;11.47;76.87
9129;BME280;4599;50.906;6.786;2023-11-19T15:52:47;99730.44;;;11.47;76.43
9129;BME280;4599;50.906;6.786;2023-11-19T15:56:49;99728.72;;;11.27;77.13
9129;BME280;4599;50.906;6.786;2023-11-19T16:00:52;99726.03;;;11.19;77.13
9129;BME280;4599;50.906;6.786;2023-11-19T16:04:53;99727.84;;;11.07;78.16
9129;BME280;4599;50.906;6.786;2023-11-19T16:08:55;99731.75;;;11.02;79.03
9129;BME280;4599;50.906;6.786;2023-11-19T16:12:56;99728.91;;;11.05;78.91
9129;BME280;4599;50.906;6.786;2023-11-19T16:16:59;99729.88;;;11.13;77.78
9129;BME280;4599;50.906;6.786;2023-11-19T16:21:01;99728.06;;;11.25;77.41
9129;BME280;4599;50.906;6.786;2023-11-19T16:25:03;99730.00;;;11.42;76.48
9129;BME280;4599;50.906;6.786;2023-11-19T16:29:04;99718.81;;;11.43;75.85
9129;BME280;4599;50.906;6.786;2023-11-19T16:33:08;99721.47;;;11.32;77.18
9129;BME280;4599;50.906;6.786;2023-11-19T16:37:21;99726.88;;;11.29;76.80
9129;BME280;4599;50.906;6.786;2023-11-19T16:41:23;99721.72;;;11.29;75.88
9129;BME280;4599;50.906;6.786;2023-11-19T16:45:40;99723.09;;;11.33;76.67
9129;BME280;4599;50.906;6.786;2023-11-19T16:49:43;99722.28;;;11.32;75.69
9129;BME280;4599;50.906;6.786;2023-11-19T16:53:45;99719.34;;;11.37;74.56
9129;BME280;4599;50.906;6.786;2023-11-19T16:57:46;99720.28;;;11.36;74.85
9129;BME280;4599;50.906;6.786;2023-11-19T17:01:48;99737.03;;;11.40;74.37
9129;BME280;4599;50.906;6.786;2023-11-19T17:05:51;99736.34;;;11.38;75.74
9129;BME280;4599;50.906;6.786;2023-11-19T17:09:52;99735.09;;;11.32;75.96
9129;BME280;4599;50.906;6.786;2023-11-19T17:13:54;99737.69;;;11.32;76.20
9129;BME280;4599;50.906;6.786;2023-11-19T17:17:55;99725.94;;;11.30;75.81
9129;BME280;4599;50.906;6.786;2023-11-19T17:21:58;99714.31;;;11.35;74.46
9129;BME280;4599;50.906;6.786;2023-11-19T17:26:00;99721.94;;;11.46;73.64
9129;BME280;4599;50.906;6.786;2023-11-19T17:30:01;99726.69;;;11.51;73.88
9129;BME280;4599;50.906;6.786;2023-11-19T17:34:03;99721.28;;;11.54;73.33
9129;BME280;4599;50.906;6.786;2023-11-19T17:38:06;99720.84;;;11.49;74.61
9129;BME280;4599;50.906;6.786;2023-11-19T17:42:27;99720.47;;;11.54;73.61
9129;BME280;4599;50.906;6.786;2023-11-19T17:46:29;99719.75;;;11.42;73.70
9129;BME280;4599;50.906;6.786;2023-11-19T17:50:30;99713.69;;;11.43;74.02
9129;BME280;4599;50.906;6.786;2023-11-19T17:54:33;99711.84;;;11.55;74.18
9129;BME280;4599;50.906;6.786;2023-11-19T17:58:37;99707.19;;;11.39;75.92
9129;BME280;4599;50.906;6.786;2023-11-19T18:02:39;99713.69;;;11.43;74.24
9129;BME280;4599;50.906;6.786;2023-11-19T18:06:44;99715.59;;;11.51;74.51
9129;BME280;4599;50.906;6.786;2023-11-19T18:10:46;99708.56;;;11.53;74.69
9129;BME280;4599;50.906;6.786;2023-11-19T18:14:49;99714.09;;;11.48;74.58
9129;BME280;4599;50.906;6.786;2023-11-19T18:18:54;99704.09;;;11.45;74.25
9129;BME280;4599;50.906;6.786;2023-11-19T18:22:56;99707.84;;;11.41;75.53
9129;BME280;4599;50.906;6.786;2023-11-19T18:26:58;99707.47;;;11.45;75.33
9129;BME280;4599;50.906;6.786;2023-11-19T18:31:00;99708.03;;;11.49;75.77
9129;BME280;4599;50.906;6.786;2023-11-19T18:35:02;99716.81;;;11.56;75.53
9129;BME280;4599;50.906;6.786;2023-11-19T18:39:04;99711.88;;;11.34;75.96
9129;BME280;4599;50.906;6.786;2023-11-19T18:43:07;99714.22;;;11.37;76.38
9129;BME280;4599;50.906;6.786;2023-11-19T18:47:08;99709.31;;;11.34;78.81
9129;BME280;4599;50.906;6.786;2023-11-19T18:51:10;99700.78;;;11.24;78.26
9129;BME280;4599;50.906;6.786;2023-11-19T18:55:12;99709.88;;;11.37;76.91
9129;BME280;4599;50.906;6.786;2023-11-19T18:59:15;99703.94;;;11.37;76.74
9129;BME280;4599;50.906;6.786;2023-11-19T19:03:17;99706.75;;;11.34;76.95
9129;BME280;4599;50.906;6.786;2023-11-19T19:07:18;99715.41;;;11.33;77.17
9129;BME280;4599;50.906;6.786;2023-11-19T19:11:22;99716.22;;;11.33;76.27
9129;BME280;4599;50.906;6.786;2023-11-19T19:15:24;99725.03;;;11.40;77.75
9129;BME280;4599;50.906;6.786;2023-11-19T19:19:26;99704.84;;;11.26;78.52
9129;BME280;4599;50.906;6.786;2023-11-19T19:23:28;99711.03;;;11.24;78.81
9129;BME280;4599;50.906;6.786;2023-11-19T19:27:30;99710.63;;;11.19;78.20
9129;BME280;4599;50.906;6.786;2023-11-19T19:31:33;99699.13;;;11.13;79.07
9129;BME280;4599;50.906;6.786;2023-11-19T19:35:34;99688.03;;;11.13;78.94
9129;BME280;4599;50.906;6.786;2023-11-19T19:39:36;99703.50;;;11.22;79.03
9129;BME280;4599;50.906;6.786;2023-11-19T19:43:37;99686.59;;;11.20;79.25
9129;BME280;4599;50.906;6.786;2023-11-19T19:47:41;99709.81;;;11.18;79.39
9129;BME280;4599;50.906;6.786;2023-11-19T19:51:43;99698.47;;;11.21;79.50
9129;BME280;4599;50.906;6.786;2023-11-19T19:55:45;99683.63;;;11.15;79.58
9129;BME280;4599;50.906;6.786;2023-11-19T19:59:46;99691.97;;;11.17;79.37
9129;BME280;4599;50.906;6.786;2023-11-19T20:03:49;99682.13;;;11.12;79.53
9129;BME280;4599;50.906;6.786;2023-11-19T20:07:51;99688.84;;;11.13;80.09
9129;BME280;4599;50.906;6.786;2023-11-19T20:11:52;99690.59;;;11.13;79.71
9129;BME280;4599;50.906;6.786;2023-11-19T20:15:54;99685.38;;;11.14;80.11
9129;BME280;4599;50.906;6.786;2023-11-19T20:19:57;99692.75;;;11.08;80.28
9129;BME280;4599;50.906;6.786;2023-11-19T20:23:58;99695.25;;;11.19;79.41
9129;BME280;4599;50.906;6.786;2023-11-19T20:28:00;99699.75;;;11.06;80.18
9129;BME280;4599;50.906;6.786;2023-11-19T20:32:02;99688.44;;;11.08;79.97
9129;BME280;4599;50.906;6.786;2023-11-19T20:36:06;99696.16;;;11.08;80.61
9129;BME280;4599;50.906;6.786;2023-11-19T20:40:09;99692.50;;;11.11;80.20
9129;BME280;4599;50.906;6.786;2023-11-19T20:44:10;99697.25;;;11.15;79.26
9129;BME280;4599;50.906;6.786;2023-11-19T20:48:12;99690.78;;;11.21;79.48
9129;BME280;4599;50.906;6.786;2023-11-19T20:52:15;99696.91;;;11.29;77.87
9129;BME280;4599;50.906;6.786;2023-11-19T20:56:16;99691.88;;;11.18;79.46
9129;BME280;4599;50.906;6.786;2023-11-19T21:00:18;99690.50;;;11.14;79.49
9129;BME280;4599;50.906;6.786;2023-11-19T21:04:20;99698.75;;;11.18;79.34
9129;BME280;4599;50.906;6.786;2023-11-19T21:08:23;99716.44;;;11.21;79.00
9129;BME280;4599;50.906;6.786;2023-11-19T21:12:25;99712.94;;;11.22;79.68
9129;BME280;4599;50.906;6.786;2023-11-19T21:16:26;99704.16;;;11.24;79.48
9129;BME280;4599;50.906;6.786;2023-11-19T21:20:28;99709.03;;;11.27;79.50
9129;BME280;4599;50.906;6.786;2023-11-19T21:24:31;99703.06;;;11.27;79.69
9129;BME280;4599;50.906;6.786;2023-11-19T21:28:32;99712.56;;;11.26;79.33
9129;BME280;4599;50.906;6.786;2023-11-19T21:32:34;99715.75;;;11.19;80.12
9129;BME280;4599;50.906;6.786;2023-11-19T21:36:35;99715.75;;;11.19;79.63
9129;BME280;4599;50.906;6.786;2023-11-19T21:40:38;99711.44;;;11.19;79.81
9129;BME280;4599;50.906;6.786;2023-11-19T21:44:40;99723.28;;;11.11;80.22
9129;BME280;4599;50.906;6.786;2023-11-19T21:48:41;99724.09;;;11.11;81.15
9129;BME280;4599;50.906;6.786;2023-11-19T21:52:43;99728.41;;;11.11;81.43
9129;BME280;4599;50.906;6.786;2023-11-19T21:56:46;99733.09;;;11.06;81.56
9129;BME280;4599;50.906;6.786;2023-11-19T22:00:47;99736.72;;;11.03;82.60